createdAt,value
2019-03-24T00:02:42.038Z,59.33
2019-03-24T00:06:23.643Z,64.70
2019-03-24T00:09:46.874Z,64.37
2019-03-24T00:13:09.697Z,63.20
2019-03-24T00:16:32.638Z,57.97
2019-03-24T00:19:55.529Z,54.83
2019-03-24T00:23:18.758Z,52.20
2019-03-24T00:26:41.934Z,41.83
2019-03-24T00:30:05.203Z,42.13
2019-03-24T00:33:28.054Z,38.90
2019-03-24T00:36:51.159Z,38.27
2019-03-24T00:40:14.613Z,34.93
2019-03-24T00:43:37.772Z,37.13
2019-03-24T00:47:00.853Z,32.30
2019-03-24T00:50:23.999Z,29.23
2019-03-24T00:53:47.132Z,29.90
2019-03-24T00:57:10.014Z,27.53
2019-03-24T01:00:53.102Z,22.93
2019-03-24T01:04:15.918Z,20.33
2019-03-24T01:07:39.441Z,21.17
2019-03-24T01:11:02.528Z,16.00
2019-03-24T01:14:25.415Z,20.67
2019-03-24T01:17:48.409Z,20.57
2019-03-24T01:21:11.459Z,16.30
2019-03-24T01:24:34.332Z,20.00
2019-03-24T01:27:57.201Z,18.17
2019-03-24T01:31:20.155Z,15.63
2019-03-24T01:34:43.065Z,16.60
2019-03-24T01:38:06.043Z,15.97
2019-03-24T01:41:29.182Z,22.03
2019-03-24T01:44:52.030Z,19.33
2019-03-24T01:48:14.890Z,18.77
2019-03-24T01:51:37.524Z,26.23
2019-03-24T01:55:00.435Z,26.50
2019-03-24T01:58:23.321Z,26.57
2019-03-24T02:01:45.954Z,26.47
2019-03-24T02:05:08.939Z,29.07
2019-03-24T02:08:31.850Z,28.77
2019-03-24T02:11:54.769Z,28.50
2019-03-24T02:15:17.629Z,28.07
2019-03-24T02:18:40.477Z,30.33
2019-03-24T02:22:03.232Z,24.43
2019-03-24T02:25:26.143Z,22.30
2019-03-24T02:28:49.059Z,22.83
2019-03-24T02:32:12.227Z,21.50
2019-03-24T02:35:34.803Z,22.97
2019-03-24T02:38:57.369Z,21.20
2019-03-24T02:42:20.325Z,21.77
2019-03-24T02:45:43.195Z,21.37
2019-03-24T02:49:06.431Z,20.57
2019-03-24T02:52:29.631Z,23.90
2019-03-24T02:55:58.496Z,22.27
2019-03-24T02:59:21.402Z,26.13
2019-03-24T03:02:44.325Z,20.40
2019-03-24T03:06:06.903Z,18.13
2019-03-24T03:09:29.813Z,19.33
2019-03-24T03:12:52.679Z,27.10
2019-03-24T03:16:15.795Z,22.13
2019-03-24T03:19:38.646Z,21.20
2019-03-24T03:23:01.519Z,19.00
2019-03-24T03:26:24.355Z,18.70
2019-03-24T03:29:47.446Z,19.73
2019-03-24T03:33:09.976Z,22.10
2019-03-24T03:36:32.853Z,19.00
2019-03-24T03:39:58.059Z,18.67
2019-03-24T03:43:20.166Z,22.57
2019-03-24T03:46:52.326Z,17.97
2019-03-24T03:50:09.928Z,21.30
2019-03-24T03:53:32.831Z,22.87
2019-03-24T03:56:55.750Z,21.47
2019-03-24T04:00:23.943Z,20.77
2019-03-24T04:03:46.961Z,18.03
2019-03-24T04:07:10.096Z,13.93
2019-03-24T04:10:33.124Z,19.57
2019-03-24T04:13:56.151Z,18.80
2019-03-24T04:17:19.124Z,26.23
2019-03-24T04:20:42.328Z,21.37
2019-03-24T04:24:05.142Z,21.30
2019-03-24T04:27:28.050Z,21.47
2019-03-24T04:30:51.163Z,19.37
2019-03-24T04:34:14.319Z,15.03
2019-03-24T04:37:37.308Z,16.57
2019-03-24T04:41:00.479Z,20.47
2019-03-24T04:44:23.377Z,15.77
2019-03-24T04:47:46.036Z,16.17
2019-03-24T04:51:09.045Z,19.23
2019-03-24T04:54:32.175Z,15.47
2019-03-24T04:57:55.196Z,19.20
2019-03-24T05:01:18.226Z,20.40
2019-03-24T05:04:40.827Z,22.37
2019-03-24T05:08:04.126Z,18.10
2019-03-24T05:11:27.181Z,16.83
2019-03-24T05:14:50.362Z,15.20
2019-03-24T05:18:13.135Z,17.47
2019-03-24T05:21:36.243Z,19.93
2019-03-24T05:24:59.527Z,24.33
2019-03-24T05:28:22.391Z,20.73
2019-03-24T05:31:45.326Z,23.20
2019-03-24T05:35:08.217Z,14.27
2019-03-24T05:38:31.142Z,18.27
2019-03-24T05:41:54.274Z,21.37
2019-03-24T05:45:17.275Z,18.30
2019-03-24T05:48:40.151Z,21.80
2019-03-24T05:52:03.574Z,15.73
2019-03-24T05:55:26.735Z,19.23
2019-03-24T05:58:49.436Z,16.10
2019-03-24T06:02:12.512Z,18.57
2019-03-24T06:05:35.870Z,16.27
2019-03-24T06:08:58.879Z,20.47
2019-03-24T06:12:22.040Z,18.90
2019-03-24T06:15:45.294Z,19.37
2019-03-24T06:19:08.366Z,12.80
2019-03-24T06:22:31.277Z,17.20
2019-03-24T06:25:53.986Z,18.33
2019-03-24T06:29:17.178Z,14.20
2019-03-24T06:32:40.629Z,15.57
2019-03-24T06:36:03.803Z,18.07
2019-03-24T06:39:26.979Z,13.83
2019-03-24T06:42:50.112Z,12.23
2019-03-24T06:46:14.979Z,15.20
2019-03-24T06:49:37.761Z,17.10
2019-03-24T06:53:01.026Z,16.60
2019-03-24T06:56:23.782Z,12.80
2019-03-24T06:59:46.846Z,16.27
2019-03-24T07:03:10.024Z,16.17
2019-03-24T07:06:34.778Z,16.53
2019-03-24T07:09:58.069Z,15.33
2019-03-24T07:13:21.042Z,14.43
2019-03-24T07:16:43.688Z,17.30
2019-03-24T07:20:07.301Z,19.60
2019-03-24T07:23:30.108Z,18.50
2019-03-24T07:26:52.774Z,20.47
2019-03-24T07:30:15.739Z,12.23
2019-03-24T07:33:38.438Z,17.63
2019-03-24T07:37:01.638Z,13.50
2019-03-24T07:40:24.249Z,15.53
2019-03-24T07:43:47.159Z,13.27
2019-03-24T07:47:13.590Z,14.87
2019-03-24T07:50:36.674Z,14.90
2019-03-24T07:53:59.586Z,16.23
2019-03-24T07:57:22.694Z,14.70
2019-03-24T08:00:45.607Z,15.13
2019-03-24T08:04:08.789Z,13.73
2019-03-24T08:07:31.418Z,13.70
2019-03-24T08:10:53.962Z,15.63
2019-03-24T08:14:17.014Z,17.70
2019-03-24T08:17:40.007Z,13.30
2019-03-24T08:21:02.637Z,15.37
2019-03-24T08:24:25.466Z,15.63
2019-03-24T08:27:48.384Z,16.53
2019-03-24T08:31:11.299Z,16.17
2019-03-24T08:34:34.322Z,17.27
2019-03-24T08:37:57.302Z,19.50
2019-03-24T08:41:20.514Z,15.33
2019-03-24T08:44:43.275Z,13.67
2019-03-24T08:48:06.247Z,17.10
2019-03-24T08:51:29.198Z,16.40
2019-03-24T08:54:52.238Z,14.27
2019-03-24T08:58:14.928Z,14.53
2019-03-24T09:01:38.042Z,16.70
2019-03-24T09:05:01.154Z,14.23
2019-03-24T09:08:24.557Z,15.00
2019-03-24T09:11:47.491Z,16.80
2019-03-24T09:15:10.699Z,14.73
2019-03-24T09:18:33.772Z,14.23
2019-03-24T09:21:56.697Z,14.07
2019-03-24T09:25:19.983Z,16.90
2019-03-24T09:28:42.896Z,15.37
2019-03-24T09:32:05.983Z,13.93
2019-03-24T09:35:29.457Z,13.73
2019-03-24T09:38:52.522Z,15.50
2019-03-24T09:42:15.767Z,18.07
2019-03-24T09:45:39.680Z,13.57
2019-03-24T09:49:03.553Z,14.43
2019-03-24T09:52:27.007Z,15.57
2019-03-24T09:55:50.143Z,17.53
2019-03-24T09:59:13.090Z,15.30
2019-03-24T10:02:36.502Z,15.17
2019-03-24T10:05:59.401Z,14.73
2019-03-24T10:09:22.444Z,17.53
2019-03-24T10:12:45.627Z,17.30
2019-03-24T10:16:08.611Z,16.43
2019-03-24T10:19:31.637Z,12.23
2019-03-24T10:22:54.602Z,11.10
2019-03-24T10:26:17.562Z,12.07
2019-03-24T10:29:40.358Z,11.67
2019-03-24T10:33:03.559Z,12.70
2019-03-24T10:36:26.650Z,11.87
2019-03-24T10:39:49.678Z,14.20
2019-03-24T10:43:13.014Z,13.27
2019-03-24T10:46:35.696Z,15.60
2019-03-24T10:49:58.945Z,15.10
2019-03-24T10:53:21.952Z,14.07
2019-03-24T10:56:45.158Z,9.43
2019-03-24T11:00:09.941Z,12.77
2019-03-24T11:03:32.788Z,11.30
2019-03-24T11:06:55.343Z,15.13
2019-03-24T11:10:18.575Z,16.47
2019-03-24T11:13:41.484Z,12.50
2019-03-24T11:17:04.450Z,7.83
2019-03-24T11:20:27.289Z,10.97
2019-03-24T11:23:50.495Z,11.93
2019-03-24T11:27:13.499Z,11.40
2019-03-24T11:30:36.609Z,12.20
2019-03-24T11:33:59.784Z,13.57
2019-03-24T11:37:22.985Z,10.93
2019-03-24T11:40:46.234Z,13.53
2019-03-24T11:44:09.181Z,9.77
2019-03-24T11:47:32.370Z,11.43
2019-03-24T11:50:55.544Z,11.67
2019-03-24T11:54:18.470Z,11.13
2019-03-24T11:57:41.260Z,7.97
2019-03-24T12:01:04.487Z,11.27
2019-03-24T12:04:27.596Z,10.67
2019-03-24T12:07:50.779Z,9.77
2019-03-24T12:11:13.759Z,8.90
2019-03-24T12:14:36.439Z,13.13
2019-03-24T12:17:59.380Z,8.63
2019-03-24T12:21:22.673Z,9.53
2019-03-24T12:24:46.169Z,9.23
2019-03-24T12:28:09.400Z,10.07
2019-03-24T12:31:32.664Z,12.60
2019-03-24T12:34:55.702Z,8.37
2019-03-24T12:38:18.648Z,11.20
2019-03-24T12:41:41.758Z,9.33
2019-03-24T12:45:05.659Z,12.03
2019-03-24T12:48:28.900Z,9.27
2019-03-24T12:51:52.059Z,11.60
2019-03-24T12:55:15.090Z,8.43
2019-03-24T12:58:38.069Z,9.73
2019-03-24T13:02:00.776Z,8.23
2019-03-24T13:05:23.507Z,9.87
2019-03-24T13:08:46.749Z,9.47
2019-03-24T13:12:09.664Z,8.80
2019-03-24T13:15:32.882Z,9.33
2019-03-24T13:18:57.120Z,8.90
2019-03-24T13:22:20.089Z,7.47
2019-03-24T13:25:43.230Z,8.63
2019-03-24T13:29:06.111Z,10.00
2019-03-24T13:32:29.209Z,9.37
2019-03-24T13:36:03.813Z,8.70
2019-03-24T13:39:26.970Z,10.70
2019-03-24T13:42:49.777Z,13.20
2019-03-24T13:46:12.769Z,7.00
2019-03-24T13:49:35.738Z,8.27
2019-03-24T13:52:59.140Z,8.90
2019-03-24T13:56:22.430Z,11.27
2019-03-24T13:59:45.494Z,7.47
2019-03-24T14:03:08.542Z,5.83
2019-03-24T14:06:31.226Z,9.47
2019-03-24T14:09:54.454Z,12.93
2019-03-24T14:13:17.408Z,10.27
2019-03-24T14:16:40.480Z,9.97
2019-03-24T14:20:04.166Z,13.33
2019-03-24T14:23:27.095Z,13.93
2019-03-24T14:26:50.398Z,10.43
2019-03-24T14:30:14.040Z,14.17
2019-03-24T14:33:37.426Z,14.87
2019-03-24T14:37:00.184Z,9.07
2019-03-24T14:40:23.003Z,8.90
2019-03-24T14:43:46.330Z,12.67
2019-03-24T14:47:09.468Z,11.53
2019-03-24T14:50:32.800Z,15.27
2019-03-24T14:53:55.529Z,9.93
2019-03-24T14:57:18.565Z,9.77
2019-03-24T15:00:42.795Z,12.37
2019-03-24T15:04:06.167Z,12.80
2019-03-24T15:07:29.235Z,9.77
2019-03-24T15:10:52.422Z,8.27
2019-03-24T15:14:15.934Z,10.63
2019-03-24T15:17:39.119Z,11.17
2019-03-24T15:21:05.960Z,10.37
2019-03-24T15:24:26.894Z,13.57
2019-03-24T15:27:50.038Z,14.60
2019-03-24T15:31:13.045Z,10.07
2019-03-24T15:34:36.128Z,14.63
2019-03-24T15:38:08.053Z,12.53
2019-03-24T15:41:23.673Z,11.87
2019-03-24T15:44:47.012Z,10.57
2019-03-24T15:48:09.948Z,13.43
2019-03-24T15:51:32.963Z,13.00
2019-03-24T15:54:55.649Z,9.97
2019-03-24T15:58:18.551Z,10.37
2019-03-24T16:01:41.488Z,11.83
2019-03-24T16:05:04.927Z,13.40
2019-03-24T16:08:27.800Z,8.40
2019-03-24T16:11:50.492Z,13.57
2019-03-24T16:15:13.549Z,11.10
2019-03-24T16:18:36.698Z,11.00
2019-03-24T16:21:59.718Z,10.23
2019-03-24T16:25:22.698Z,15.03
2019-03-24T16:28:45.647Z,29.10
2019-03-24T16:32:08.598Z,23.87
2019-03-24T16:35:31.756Z,16.40
2019-03-24T16:39:03.105Z,8.97
2019-03-24T16:42:19.491Z,9.17
2019-03-24T16:45:42.367Z,6.40
2019-03-24T16:49:04.875Z,11.20
2019-03-24T16:52:27.493Z,18.07
2019-03-24T16:55:50.564Z,19.03
2019-03-24T16:59:13.543Z,12.03
2019-03-24T17:02:36.527Z,16.23
2019-03-24T17:05:59.351Z,10.57
2019-03-24T17:09:22.403Z,13.53
2019-03-24T17:12:45.139Z,10.20
2019-03-24T17:16:08.297Z,13.93
2019-03-24T17:19:31.185Z,12.27
2019-03-24T17:22:54.050Z,10.63
2019-03-24T17:26:17.395Z,12.40
2019-03-24T17:29:40.487Z,15.73
2019-03-24T17:33:03.731Z,11.87
2019-03-24T17:36:26.910Z,13.03
2019-03-24T17:39:50.411Z,13.90
2019-03-24T17:43:13.522Z,8.80
2019-03-24T17:46:36.766Z,12.30
2019-03-24T17:49:59.571Z,12.00
2019-03-24T17:53:22.886Z,11.90
2019-03-24T17:56:45.632Z,9.17
2019-03-24T18:00:10.190Z,10.70
2019-03-24T18:03:33.519Z,10.37
2019-03-24T18:06:56.112Z,13.83
2019-03-24T18:10:19.359Z,12.90
2019-03-24T18:13:42.677Z,17.13
2019-03-24T18:17:05.786Z,21.23
2019-03-24T18:20:32.858Z,14.87
2019-03-24T18:23:55.590Z,20.13
2019-03-24T18:27:18.529Z,15.47
2019-03-24T18:30:41.158Z,12.87
2019-03-24T18:34:04.490Z,15.67
2019-03-24T18:37:27.450Z,14.57
2019-03-24T18:40:50.192Z,10.27
2019-03-24T18:44:13.123Z,12.50
2019-03-24T18:47:35.847Z,11.53
2019-03-24T18:50:58.848Z,9.20
2019-03-24T18:54:21.707Z,13.80
2019-03-24T18:57:44.706Z,7.83
2019-03-24T19:01:07.780Z,12.90
2019-03-24T19:04:30.894Z,11.83
2019-03-24T19:07:53.878Z,10.93
2019-03-24T19:11:16.814Z,11.07
2019-03-24T19:14:40.229Z,12.20
2019-03-24T19:18:03.264Z,10.20
2019-03-24T19:21:26.627Z,15.80
2019-03-24T19:24:49.289Z,16.70
2019-03-24T19:28:12.242Z,13.83
2019-03-24T19:31:35.262Z,12.77
2019-03-24T19:34:58.106Z,10.67
2019-03-24T19:38:21.293Z,10.43
2019-03-24T19:41:44.219Z,14.07
2019-03-24T19:45:07.780Z,14.03
2019-03-24T19:48:30.833Z,10.03
2019-03-24T19:51:53.752Z,13.57
2019-03-24T19:55:16.449Z,32.37
2019-03-24T19:58:39.193Z,21.33
2019-03-24T20:02:02.201Z,20.97
2019-03-24T20:05:26.866Z,13.87
2019-03-24T20:08:50.950Z,12.97
2019-03-24T20:12:15.849Z,10.27
2019-03-24T20:15:38.647Z,18.70
2019-03-24T20:19:01.592Z,24.90
2019-03-24T20:22:24.297Z,15.37
2019-03-24T20:25:47.346Z,18.27
2019-03-24T20:29:10.573Z,15.43
2019-03-24T20:32:33.734Z,12.67
2019-03-24T20:35:56.687Z,11.83
2019-03-24T20:39:19.566Z,11.87
2019-03-24T20:42:42.204Z,14.00
2019-03-24T20:46:04.939Z,14.03
2019-03-24T20:49:28.046Z,11.83
2019-03-24T20:52:51.230Z,12.87
2019-03-24T20:56:14.318Z,9.50
2019-03-24T20:59:36.990Z,10.40
2019-03-24T21:02:59.747Z,6.73
2019-03-24T21:06:22.870Z,11.23
2019-03-24T21:09:46.619Z,11.30
2019-03-24T21:13:09.355Z,17.37
2019-03-24T21:16:32.387Z,12.93
2019-03-24T21:19:55.407Z,12.57
2019-03-24T21:23:28.866Z,13.73
2019-03-24T21:26:42.684Z,11.40
2019-03-24T21:30:06.267Z,12.90
2019-03-24T21:33:29.307Z,13.73
2019-03-24T21:36:52.554Z,11.63
2019-03-24T21:40:15.703Z,14.23
2019-03-24T21:43:38.410Z,9.87
2019-03-24T21:47:01.631Z,10.97
2019-03-24T21:50:24.688Z,12.07
2019-03-24T21:53:48.159Z,16.93
2019-03-24T21:57:11.370Z,15.60
2019-03-24T22:00:38.214Z,13.17
2019-03-24T22:04:00.818Z,14.87
2019-03-24T22:07:23.620Z,10.90
2019-03-24T22:10:46.363Z,11.33
2019-03-24T22:14:09.451Z,11.57
2019-03-24T22:17:32.099Z,14.67
2019-03-24T22:20:55.214Z,11.73
2019-03-24T22:24:18.295Z,9.57
2019-03-24T22:27:41.234Z,15.20
2019-03-24T22:31:04.079Z,10.20
2019-03-24T22:34:27.055Z,15.20
2019-03-24T22:37:49.672Z,14.83
2019-03-24T22:41:12.358Z,9.93
2019-03-24T22:44:35.089Z,14.63
2019-03-24T22:47:58.491Z,14.20
2019-03-24T22:51:21.392Z,13.03
2019-03-24T22:54:44.297Z,13.40
2019-03-24T22:58:07.334Z,14.07
2019-03-24T23:01:30.552Z,9.80
2019-03-24T23:04:53.486Z,11.33
2019-03-24T23:08:16.516Z,15.17
2019-03-24T23:11:39.533Z,10.83
2019-03-24T23:15:02.443Z,12.87
2019-03-24T23:18:25.067Z,13.20
2019-03-24T23:21:48.095Z,11.07
2019-03-24T23:25:11.334Z,17.93
2019-03-24T23:28:34.433Z,13.37
2019-03-24T23:31:57.641Z,9.60
2019-03-24T23:35:20.633Z,17.77
2019-03-24T23:38:43.625Z,16.03
2019-03-24T23:42:06.683Z,13.87
2019-03-24T23:45:29.475Z,12.77
2019-03-24T23:48:52.471Z,20.43
2019-03-24T23:52:15.801Z,13.10
2019-03-24T23:55:38.874Z,16.17
2019-03-24T23:59:01.792Z,13.10
